Time;durP1;ratioP1;P1;durP2;ratioP2;P2;SDS_P1;SDS_P2;PMS_P1;PMS_P2;Temp;Humidity;BMP_temperature;BMP_pressure;BME280_temperature;BME280_humidity;BME280_pressure;Samples;Min_cycle;Max_cycle;Signal;HPM_P1;HPM_P2
2021/12/23 00:02:11;;;;;;;49.30;22.70;;;;;-1.20;101081.00;;;;10416836;28;20322;-78
2021/12/23 00:07:14;;;;;;;39.07;23.40;;;;;-1.20;101103.00;;;;10399797;28;20229;-78
2021/12/23 00:12:17;;;;;;;45.33;22.67;;;;;-1.30;101114.00;;;;10424176;28;20194;-78
2021/12/23 00:17:27;;;;;;;46.53;25.60;;;;;-1.40;101115.00;;;;10441707;28;20206;-78
2021/12/23 00:27:49;;;;;;;44.27;24.17;;;;;-1.40;101093.00;;;;10399146;28;20182;-78
2021/12/23 00:32:52;;;;;;;53.10;27.30;;;;;-1.40;101085.00;;;;10367354;28;20231;-78
2021/12/23 00:38:05;;;;;;;40.37;23.17;;;;;-1.40;101069.00;;;;10398930;28;20198;-78
2021/12/23 00:43:07;;;;;;;47.93;24.77;;;;;-1.40;101055.00;;;;10399216;28;20277;-78
2021/12/23 00:48:09;;;;;;;45.13;24.43;;;;;-1.40;101048.00;;;;10398418;28;20179;-78
2021/12/23 00:53:13;;;;;;;51.77;26.20;;;;;-1.30;101038.00;;;;10399486;28;20198;-78
2021/12/23 00:58:15;;;;;;;43.87;24.10;;;;;-1.30;101017.00;;;;10414018;28;20260;-78
2021/12/23 01:03:18;;;;;;;48.33;24.67;;;;;-1.30;101015.00;;;;10398642;28;20187;-78
2021/12/23 01:08:20;;;;;;;45.50;25.97;;;;;-1.20;101037.00;;;;10424709;28;20194;-78
2021/12/23 01:13:26;;;;;;;46.30;25.23;;;;;-1.20;101049.00;;;;10421930;28;20194;-78
2021/12/23 01:18:43;;;;;;;43.77;24.23;;;;;-1.30;101033.00;;;;10345045;28;20250;-78
2021/12/23 01:23:49;;;;;;;53.20;24.63;;;;;-1.20;101042.00;;;;10349260;28;20246;-79
2021/12/23 01:28:57;;;;;;;43.40;22.13;;;;;-1.20;101042.00;;;;10383328;28;20524;-78
2021/12/23 01:34:00;;;;;;;47.20;23.80;;;;;-1.20;101048.00;;;;10405687;28;20207;-78
2021/12/23 01:39:03;;;;;;;50.03;25.37;;;;;-1.10;101033.00;;;;10405655;28;20278;-78
2021/12/23 01:44:06;;;;;;;53.50;26.30;;;;;-1.10;101059.00;;;;10405342;28;20203;-79
2021/12/23 01:49:08;;;;;;;50.43;24.30;;;;;-1.10;101029.00;;;;10405413;28;20257;-78
2021/12/23 01:54:10;;;;;;;52.27;24.47;;;;;-1.20;101037.00;;;;10388677;28;20191;-78
2021/12/23 01:59:12;;;;;;;47.17;22.80;;;;;-1.20;101033.00;;;;10404482;28;20211;-78
2021/12/23 02:04:14;;;;;;;59.83;25.43;;;;;-1.20;101016.00;;;;10427684;28;20195;-78
2021/12/23 02:09:18;;;;;;;52.23;24.13;;;;;-1.20;101020.00;;;;10397210;28;20241;-77
2021/12/23 02:14:22;;;;;;;51.80;22.60;;;;;-1.20;100993.00;;;;10388209;28;20191;-78
2021/12/23 02:19:24;;;;;;;47.17;22.17;;;;;-1.10;100986.00;;;;10379877;28;20241;-78
2021/12/23 02:24:26;;;;;;;52.13;24.97;;;;;-1.10;100985.00;;;;10379905;28;20246;-78
2021/12/23 02:29:28;;;;;;;50.07;23.10;;;;;-1.10;100989.00;;;;10379557;28;20255;-78
2021/12/23 02:34:30;;;;;;;44.90;22.70;;;;;-1.10;100985.00;;;;10395686;28;20294;-78
2021/12/23 02:39:32;;;;;;;43.83;22.67;;;;;-1.10;100977.00;;;;10439235;28;20244;-78
2021/12/23 02:44:34;;;;;;;47.80;22.10;;;;;-1.10;100980.00;;;;10453495;28;20190;-78
2021/12/23 02:49:36;;;;;;;52.70;23.80;;;;;-1.10;100986.00;;;;10460524;28;20216;-78
2021/12/23 02:54:38;;;;;;;50.20;22.43;;;;;-1.10;100971.00;;;;10477203;28;20183;-78
2021/12/23 02:59:40;;;;;;;45.60;21.27;;;;;-1.10;100959.00;;;;10402941;28;20211;-78
2021/12/23 03:04:42;;;;;;;48.33;22.23;;;;;-1.10;100947.00;;;;10386269;28;20206;-78
2021/12/23 03:09:47;;;;;;;46.93;22.83;;;;;-1.10;100953.00;;;;10385961;28;20178;-78
2021/12/23 03:14:49;;;;;;;46.70;22.77;;;;;-1.10;100940.00;;;;10385171;28;20610;-78
2021/12/23 03:19:51;;;;;;;48.30;21.70;;;;;-1.10;100924.00;;;;10417191;28;20670;-78
2021/12/23 03:24:53;;;;;;;50.20;21.87;;;;;-1.10;100907.00;;;;10385149;28;20198;-78
2021/12/23 03:29:56;;;;;;;45.93;20.97;;;;;-1.10;100897.00;;;;10401454;28;20655;-78
2021/12/23 03:34:59;;;;;;;51.87;22.23;;;;;-1.20;100903.00;;;;10383724;28;20214;-78
2021/12/23 03:40:01;;;;;;;45.53;20.73;;;;;-1.20;100896.00;;;;10384071;28;20223;-78
2021/12/23 03:45:05;;;;;;;43.03;20.90;;;;;-1.10;100874.00;;;;10400620;28;20195;-78
2021/12/23 03:50:07;;;;;;;47.93;21.47;;;;;-1.10;100882.00;;;;10433521;28;20195;-78
2021/12/23 03:55:10;;;;;;;43.90;19.60;;;;;-1.00;100861.00;;;;10416778;28;20249;-78
2021/12/23 04:00:17;;;;;;;49.50;21.73;;;;;-1.00;100845.00;;;;10400329;28;20233;-78
2021/12/23 04:05:19;;;;;;;51.30;22.43;;;;;-1.10;100844.00;;;;10410164;28;20187;-78
2021/12/23 04:10:21;;;;;;;47.93;21.60;;;;;-1.10;100838.00;;;;10409713;28;20260;-78
2021/12/23 04:15:23;;;;;;;49.50;21.77;;;;;-1.10;100822.00;;;;10417305;28;20199;-78
2021/12/23 04:20:32;;;;;;;46.33;20.83;;;;;-1.10;100813.00;;;;10399473;28;20211;-78
2021/12/23 04:25:34;;;;;;;47.67;21.40;;;;;-1.20;100808.00;;;;10416018;28;20217;-78
2021/12/23 04:30:36;;;;;;;51.23;21.83;;;;;-1.20;100802.00;;;;10383060;28;20195;-78
2021/12/23 04:35:39;;;;;;;44.63;20.67;;;;;-1.10;100783.00;;;;10383183;28;20686;-78
2021/12/23 04:40:41;;;;;;;46.50;21.37;;;;;-1.00;100787.00;;;;10423360;28;20226;-78
2021/12/23 04:45:43;;;;;;;49.83;22.37;;;;;-1.00;100786.00;;;;10406593;28;20234;-78
2021/12/23 04:50:44;;;;;;;47.93;20.63;;;;;-0.90;100781.00;;;;10398968;28;20250;-78
2021/12/23 04:55:47;;;;;;;48.37;21.93;;;;;-0.90;100773.00;;;;10406894;28;20191;-78
2021/12/23 05:00:51;;;;;;;48.30;23.20;;;;;-0.90;100768.00;;;;10390805;28;20261;-78
2021/12/23 05:05:53;;;;;;;48.57;21.87;;;;;-0.90;100766.00;;;;10390063;28;20298;-78
2021/12/23 05:10:55;;;;;;;52.53;21.93;;;;;-0.90;100759.00;;;;10419957;28;20263;-78
2021/12/23 05:15:57;;;;;;;53.37;23.37;;;;;-0.90;100747.00;;;;10396676;28;20191;-78
2021/12/23 05:21:02;;;;;;;51.37;22.00;;;;;-0.90;100732.00;;;;10397921;28;20210;-78
2021/12/23 05:26:06;;;;;;;46.30;21.67;;;;;-0.90;100726.00;;;;10400436;28;20199;-77
2021/12/23 05:31:08;;;;;;;55.57;21.27;;;;;-0.80;100719.00;;;;10405874;28;20535;-78
2021/12/23 05:36:09;;;;;;;46.47;22.60;;;;;-0.70;100704.00;;;;10389253;28;20211;-77
2021/12/23 05:41:11;;;;;;;46.70;21.47;;;;;-0.60;100695.00;;;;10429867;28;20215;-77
2021/12/23 05:46:13;;;;;;;48.53;21.27;;;;;-0.50;100701.00;;;;10404943;28;20655;-77
2021/12/23 05:51:15;;;;;;;43.83;20.10;;;;;-0.40;100707.00;;;;10405193;28;20547;-78
2021/12/23 05:56:18;;;;;;;49.87;21.80;;;;;-0.30;100702.00;;;;10405196;28;20555;-78
2021/12/23 06:01:20;;;;;;;46.90;20.93;;;;;-0.30;100710.00;;;;10404626;28;20246;-78
2021/12/23 06:06:22;;;;;;;50.90;21.93;;;;;-0.20;100710.00;;;;10403098;28;20206;-78
2021/12/23 06:11:24;;;;;;;43.97;19.80;;;;;-0.20;100711.00;;;;10392288;28;20605;-78
2021/12/23 06:16:30;;;;;;;49.10;20.40;;;;;-0.10;100712.00;;;;10388493;28;20237;-77
2021/12/23 06:21:32;;;;;;;49.80;20.17;;;;;0.00;100721.00;;;;10404001;28;20207;-78
2021/12/23 06:26:34;;;;;;;43.03;20.53;;;;;0.00;100713.00;;;;10387437;28;20312;-78
2021/12/23 06:31:36;;;;;;;52.23;20.17;;;;;0.10;100689.00;;;;10403762;28;20239;-78
2021/12/23 06:36:39;;;;;;;40.97;19.77;;;;;0.30;100669.00;;;;10387287;28;20223;-78
2021/12/23 06:41:41;;;;;;;44.43;18.87;;;;;0.30;100652.00;;;;10391177;28;20222;-78
2021/12/23 06:46:43;;;;;;;43.30;21.47;;;;;0.40;100658.00;;;;10403385;28;20199;-78
2021/12/23 06:51:50;;;;;;;41.67;20.90;;;;;0.50;100648.00;;;;10402381;28;20238;-77
2021/12/23 06:56:52;;;;;;;44.97;19.53;;;;;0.50;100649.00;;;;10388182;28;20670;-78
2021/12/23 07:01:54;;;;;;;49.73;22.67;;;;;0.50;100648.00;;;;10402492;28;20601;-78
2021/12/23 07:07:08;;;;;;;44.63;21.43;;;;;0.50;100672.00;;;;10401991;28;20253;-78
2021/12/23 07:12:12;;;;;;;43.10;20.33;;;;;0.40;100659.00;;;;10361716;28;20192;-78
2021/12/23 07:17:14;;;;;;;49.07;21.00;;;;;0.30;100651.00;;;;10401509;28;20725;-78
2021/12/23 07:22:16;;;;;;;40.93;19.80;;;;;0.40;100626.00;;;;10402018;28;20253;-78
2021/12/23 07:27:18;;;;;;;43.27;19.87;;;;;0.50;100626.00;;;;10432406;28;20278;-78
2021/12/23 07:32:19;;;;;;;42.20;20.60;;;;;0.60;100606.00;;;;10385655;28;20257;-78
2021/12/23 07:37:21;;;;;;;44.67;19.30;;;;;0.70;100610.00;;;;10402928;28;20273;-78
2021/12/23 07:42:25;;;;;;;49.80;21.83;;;;;0.80;100605.00;;;;10442067;28;20221;-78
2021/12/23 07:47:29;;;;;;;37.60;18.13;;;;;0.90;100616.00;;;;10417967;28;20257;-78
2021/12/23 07:52:33;;;;;;;40.03;20.37;;;;;1.00;100633.00;;;;10400951;28;20650;-78
2021/12/23 07:57:35;;;;;;;39.40;18.87;;;;;1.00;100634.00;;;;10401152;28;20234;-78
2021/12/23 08:02:37;;;;;;;42.73;19.33;;;;;1.00;100634.00;;;;10392594;28;20210;-78
2021/12/23 08:07:39;;;;;;;37.53;18.17;;;;;1.00;100626.00;;;;10429058;28;20562;-78
2021/12/23 08:12:41;;;;;;;42.70;19.43;;;;;1.10;100622.00;;;;10388028;28;20198;-78
2021/12/23 08:17:44;;;;;;;42.13;20.30;;;;;1.10;100631.00;;;;10423267;28;20179;-78
2021/12/23 08:22:46;;;;;;;46.07;21.37;;;;;1.20;100600.00;;;;10387967;28;20636;-78
2021/12/23 08:27:51;;;;;;;37.07;19.57;;;;;1.30;100613.00;;;;10401954;28;20222;-78
2021/12/23 08:32:53;;;;;;;36.67;19.23;;;;;1.40;100605.00;;;;10391951;28;20214;-78
2021/12/23 08:37:55;;;;;;;37.87;18.43;;;;;1.50;100613.00;;;;10381923;28;20252;-78
2021/12/23 08:42:58;;;;;;;41.87;20.57;;;;;1.50;100628.00;;;;10403142;28;20227;-79
2021/12/23 08:48:02;;;;;;;42.77;18.63;;;;;1.60;100622.00;;;;10400056;28;20543;-78
2021/12/23 08:53:04;;;;;;;38.30;18.40;;;;;1.70;100624.00;;;;10416229;28;20187;-78
2021/12/23 08:58:06;;;;;;;31.73;17.00;;;;;1.80;100610.00;;;;10398472;28;20202;-78
2021/12/23 09:03:09;;;;;;;34.03;17.30;;;;;2.20;100600.00;;;;10392599;28;20698;-78
2021/12/23 09:08:11;;;;;;;33.93;16.67;;;;;2.40;100586.00;;;;10437286;28;20218;-77
2021/12/23 09:13:13;;;;;;;31.37;16.70;;;;;2.60;100603.00;;;;10400534;28;20198;-78
2021/12/23 09:18:15;;;;;;;36.97;18.23;;;;;2.80;100604.00;;;;10439588;28;20249;-77
2021/12/23 09:23:18;;;;;;;31.33;16.97;;;;;3.00;100581.00;;;;10384859;28;20215;-78
2021/12/23 09:28:39;;;;;;;28.33;16.50;;;;;3.20;100566.00;;;;10432750;28;20202;-78
2021/12/23 09:33:42;;;;;;;28.73;15.47;;;;;3.30;100580.00;;;;10371324;28;20210;-78
2021/12/23 09:38:44;;;;;;;28.70;16.10;;;;;3.40;100579.00;;;;10416915;28;20198;-78
2021/12/23 09:43:47;;;;;;;28.27;15.30;;;;;3.40;100588.00;;;;10395087;28;20589;-78
2021/12/23 09:48:50;;;;;;;28.60;15.87;;;;;3.60;100583.00;;;;10394146;28;20203;-78
2021/12/23 09:53:59;;;;;;;27.57;15.93;;;;;3.70;100586.00;;;;10404417;28;20234;-78
2021/12/23 09:59:06;;;;;;;29.17;14.43;;;;;3.80;100595.00;;;;10395579;28;20194;-78
2021/12/23 10:04:09;;;;;;;28.60;16.30;;;;;4.00;100583.00;;;;10462327;28;20222;-78
2021/12/23 10:09:13;;;;;;;29.97;16.13;;;;;4.30;100564.00;;;;10383797;28;20211;-78
2021/12/23 10:31:40;;;;;;;30.00;17.03;;;;;5.20;100567.00;;;;10436346;28;20191;-78
2021/12/23 10:42:14;;;;;;;35.23;17.87;;;;;5.10;100539.00;;;;10388645;28;20734;-78
2021/12/23 10:53:04;;;;;;;31.13;18.47;;;;;5.10;100526.00;;;;10430104;28;20195;-78
2021/12/23 10:58:12;;;;;;;32.37;18.87;;;;;5.10;100511.00;;;;10401032;28;20720;-77
2021/12/23 11:03:27;;;;;;;30.13;18.30;;;;;5.10;100513.00;;;;10384645;28;20211;-77
2021/12/23 11:45:50;;;;;;;28.37;17.63;;;;;6.50;100471.00;;;;10416012;28;20191;-77
2021/12/23 11:51:14;;;;;;;33.33;19.73;;;;;6.70;100450.00;;;;10387245;28;20195;-77
2021/12/23 11:56:21;;;;;;;35.57;19.13;;;;;6.90;100452.00;;;;10414249;28;20190;-77
2021/12/23 12:01:28;;;;;;;30.30;18.83;;;;;7.10;100450.00;;;;10398948;28;20219;-77
2021/12/23 12:06:40;;;;;;;29.80;17.97;;;;;7.40;100437.00;;;;10398447;28;20198;-77
2021/12/23 12:11:50;;;;;;;30.10;17.80;;;;;8.00;100435.00;;;;10399760;28;20219;-77
2021/12/23 12:16:53;;;;;;;30.50;19.53;;;;;7.70;100430.00;;;;10384599;28;20191;-77
2021/12/23 12:21:55;;;;;;;33.93;19.70;;;;;7.30;100436.00;;;;10386975;28;20260;-77
2021/12/23 12:27:03;;;;;;;30.93;19.50;;;;;7.00;100434.00;;;;10420236;28;20716;-77
2021/12/23 12:32:05;;;;;;;31.23;19.70;;;;;6.50;100428.00;;;;10424287;28;20241;-77
2021/12/23 12:37:07;;;;;;;32.70;19.80;;;;;6.20;100410.00;;;;10392014;28;20226;-77
2021/12/23 12:42:27;;;;;;;28.63;15.53;;;;;6.10;100423.00;;;;10433665;28;20210;-77
2021/12/23 12:47:33;;;;;;;32.90;19.70;;;;;6.10;100432.00;;;;10416567;28;20650;-77
2021/12/23 12:52:47;;;;;;;30.70;18.53;;;;;6.10;100419.00;;;;10382149;28;20190;-77
2021/12/23 12:57:52;;;;;;;32.57;18.47;;;;;6.10;100435.00;;;;10430350;28;20199;-77
2021/12/23 13:03:19;;;;;;;32.80;19.47;;;;;6.00;100425.00;;;;10397057;28;20211;-77
2021/12/23 13:08:30;;;;;;;31.53;18.77;;;;;6.00;100426.00;;;;10410496;28;20198;-77
2021/12/23 13:14:00;;;;;;;40.83;21.83;;;;;5.90;100427.00;;;;10384149;28;20189;-77
2021/12/23 13:19:22;;;;;;;36.23;19.13;;;;;5.90;100420.00;;;;10434219;28;20205;-77
2021/12/23 13:24:27;;;;;;;42.00;23.00;;;;;5.80;100427.00;;;;10407250;28;20254;-77
2021/12/23 13:29:31;;;;;;;38.87;20.93;;;;;5.80;100423.00;;;;10437006;28;20672;-77
2021/12/23 13:34:33;;;;;;;40.57;22.63;;;;;5.70;100407.00;;;;10425868;28;20218;-77
2021/12/23 13:39:40;;;;;;;39.73;22.03;;;;;5.50;100413.00;;;;10402501;28;20209;-77
2021/12/23 13:44:51;;;;;;;39.13;21.93;;;;;5.50;100413.00;;;;10425447;28;20206;-77
2021/12/23 13:49:58;;;;;;;37.80;21.40;;;;;5.50;100411.00;;;;10423523;28;20191;-77
2021/12/23 13:55:05;;;;;;;39.97;21.13;;;;;5.60;100401.00;;;;10404165;28;20621;-77
2021/12/23 14:00:17;;;;;;;42.40;22.03;;;;;5.50;100404.00;;;;10422259;28;20210;-77
2021/12/23 14:05:23;;;;;;;38.43;19.93;;;;;5.40;100399.00;;;;10417963;28;20202;-78
2021/12/23 14:10:27;;;;;;;38.30;20.10;;;;;5.40;100401.00;;;;10427293;28;20190;-77
2021/12/23 14:15:36;;;;;;;39.63;19.40;;;;;5.30;100395.00;;;;10398646;28;20191;-77
2021/12/23 14:26:02;;;;;;;33.53;18.80;;;;;5.20;100382.00;;;;10418095;28;20197;-78
2021/12/23 14:31:25;;;;;;;40.37;20.13;;;;;5.20;100374.00;;;;10400725;28;20191;-77
2021/12/23 14:36:39;;;;;;;37.03;20.67;;;;;5.30;100365.00;;;;10395722;28;20751;-77
2021/12/23 14:41:52;;;;;;;36.57;18.33;;;;;5.40;100357.00;;;;10404582;28;20225;-78
2021/12/23 14:47:28;;;;;;;43.53;20.20;;;;;5.40;100363.00;;;;10427972;28;20193;-77
2021/12/23 14:52:42;;;;;;;42.60;20.90;;;;;5.30;100357.00;;;;10447039;28;20186;-77
2021/12/23 14:57:52;;;;;;;37.80;20.63;;;;;5.30;100365.00;;;;10392287;28;20190;-77
2021/12/23 15:03:13;;;;;;;42.73;21.80;;;;;5.30;100369.00;;;;10392068;28;20207;-77
2021/12/23 15:08:20;;;;;;;42.40;21.37;;;;;5.20;100374.00;;;;10424915;28;20197;-78
2021/12/23 15:13:28;;;;;;;40.43;21.00;;;;;5.10;100391.00;;;;10401555;28;20197;-77
2021/12/23 15:18:57;;;;;;;44.90;21.27;;;;;5.10;100390.00;;;;10431587;28;20704;-77
2021/12/23 15:23:56;;;;;;;45.00;21.90;;;;;5.10;100387.00;;;;10415762;28;20264;-77
2021/12/23 15:29:25;;;;;;;37.67;19.83;;;;;5.00;100389.00;;;;10418386;28;20214;-77
2021/12/23 15:34:29;;;;;;;40.00;20.07;;;;;5.00;100368.00;;;;10389313;28;20289;-77
2021/12/23 15:39:35;;;;;;;43.97;21.50;;;;;5.00;100356.00;;;;10414507;28;20215;-77
2021/12/23 15:44:39;;;;;;;45.30;22.47;;;;;5.00;100374.00;;;;10432754;28;20203;-77
2021/12/23 15:49:41;;;;;;;45.90;21.77;;;;;4.90;100359.00;;;;10417554;28;20274;-77
2021/12/23 15:54:44;;;;;;;41.20;22.87;;;;;4.90;100355.00;;;;10441575;28;20187;-77
2021/12/23 15:59:51;;;;;;;44.27;21.80;;;;;4.90;100350.00;;;;10429913;28;20198;-77
2021/12/23 16:10:15;;;;;;;53.47;25.03;;;;;5.00;100374.00;;;;10423454;28;20220;-77
2021/12/23 16:15:18;;;;;;;49.90;25.10;;;;;5.00;100366.00;;;;10388010;28;20722;-77
2021/12/23 16:20:22;;;;;;;53.27;24.40;;;;;5.00;100372.00;;;;10422459;28;20249;-77
2021/12/23 16:25:24;;;;;;;52.23;25.50;;;;;5.00;100377.00;;;;10418694;28;20191;-78
2021/12/23 16:30:28;;;;;;;51.43;25.40;;;;;5.00;100372.00;;;;10378765;28;20570;-78
2021/12/23 16:35:36;;;;;;;51.30;24.63;;;;;5.00;100365.00;;;;10404098;28;20217;-78
2021/12/23 16:40:43;;;;;;;49.60;23.30;;;;;5.00;100376.00;;;;10393626;28;20206;-78
2021/12/23 16:45:47;;;;;;;54.03;25.60;;;;;5.00;100372.00;;;;10398457;28;20270;-77
2021/12/23 16:50:50;;;;;;;50.33;23.63;;;;;5.10;100371.00;;;;10428238;28;20185;-78
2021/12/23 17:00:58;;;;;;;53.83;23.23;;;;;5.10;100351.00;;;;10398578;28;20677;-77
2021/12/23 17:06:03;;;;;;;55.13;23.77;;;;;5.10;100346.00;;;;10436343;28;20202;-78
2021/12/23 17:11:05;;;;;;;57.37;26.20;;;;;5.10;100347.00;;;;10394167;28;20190;-78
2021/12/23 17:16:09;;;;;;;58.17;25.47;;;;;5.10;100344.00;;;;10387090;28;20657;-78
2021/12/23 17:26:13;;;;;;;48.47;24.13;;;;;5.20;100313.00;;;;10411826;28;20190;-78
2021/12/23 17:31:15;;;;;;;47.17;22.23;;;;;5.30;100306.00;;;;10395348;28;20643;-78
2021/12/23 17:36:18;;;;;;;46.40;23.67;;;;;5.40;100308.00;;;;10378794;28;20211;-78
2021/12/23 17:41:20;;;;;;;43.07;23.10;;;;;5.40;100290.00;;;;10411472;28;20225;-78
2021/12/23 17:46:22;;;;;;;41.33;22.70;;;;;5.50;100283.00;;;;10394964;28;20561;-78
2021/12/23 17:51:24;;;;;;;45.90;23.13;;;;;5.50;100266.00;;;;10411041;28;20630;-78
2021/12/23 17:56:26;;;;;;;45.67;24.00;;;;;5.40;100253.00;;;;10411701;28;20206;-78
2021/12/23 18:01:28;;;;;;;40.50;22.13;;;;;5.40;100250.00;;;;10388631;28;20670;-78
2021/12/23 18:06:36;;;;;;;41.97;22.40;;;;;5.40;100258.00;;;;10388640;28;20194;-78
2021/12/23 18:11:41;;;;;;;37.07;19.03;;;;;5.40;100250.00;;;;10379682;28;20208;-78
2021/12/23 18:16:43;;;;;;;40.87;21.10;;;;;5.40;100249.00;;;;10363397;28;20618;-78
2021/12/23 18:21:45;;;;;;;43.80;22.90;;;;;5.50;100239.00;;;;10400154;28;20202;-78
2021/12/23 18:26:47;;;;;;;39.27;21.00;;;;;5.50;100246.00;;;;10404868;28;20654;-78
2021/12/23 18:31:49;;;;;;;35.40;19.93;;;;;5.60;100248.00;;;;10402580;28;20242;-78
2021/12/23 18:36:58;;;;;;;39.63;20.93;;;;;5.50;100261.00;;;;10385433;28;20276;-79
2021/12/23 18:42:04;;;;;;;39.27;21.63;;;;;5.50;100248.00;;;;10403018;28;20218;-81
2021/12/23 18:47:07;;;;;;;40.97;20.87;;;;;5.60;100248.00;;;;10402705;28;20191;-81
2021/12/23 18:52:09;;;;;;;43.57;22.23;;;;;5.70;100245.00;;;;10386230;28;20191;-80
2021/12/23 18:57:12;;;;;;;43.57;23.37;;;;;5.70;100229.00;;;;10386712;28;20191;-80
2021/12/23 19:07:35;;;;;;;45.67;22.30;;;;;6.00;100214.00;;;;10402356;28;20658;-80
2021/12/23 19:12:37;;;;;;;43.73;22.13;;;;;6.20;100210.00;;;;10401525;28;20222;-81
2021/12/23 19:17:39;;;;;;;38.73;20.97;;;;;6.30;100215.00;;;;10403310;28;20246;-81
2021/12/23 19:22:41;;;;;;;40.03;20.70;;;;;6.40;100216.00;;;;10401728;28;20210;-81
2021/12/23 19:27:44;;;;;;;46.37;21.50;;;;;6.50;100221.00;;;;10400208;28;20198;-81
2021/12/23 19:32:47;;;;;;;39.73;18.30;;;;;6.50;100225.00;;;;10434293;28;20183;-80
2021/12/23 19:37:49;;;;;;;47.43;21.47;;;;;6.60;100226.00;;;;10407176;28;20250;-80
2021/12/23 19:42:51;;;;;;;45.37;23.07;;;;;6.70;100223.00;;;;10416580;28;20269;-80
2021/12/23 19:47:53;;;;;;;43.60;23.40;;;;;6.70;100222.00;;;;10424229;28;20197;-80
2021/12/23 19:52:58;;;;;;;37.40;19.30;;;;;6.80;100216.00;;;;10400506;28;20198;-79
2021/12/23 19:58:01;;;;;;;52.90;24.03;;;;;6.80;100205.00;;;;10416945;28;20651;-80
2021/12/23 20:03:07;;;;;;;45.93;23.87;;;;;6.90;100209.00;;;;10399961;28;20219;-80
2021/12/23 20:08:12;;;;;;;51.70;23.77;;;;;6.90;100211.00;;;;10408061;28;20198;-79
2021/12/23 20:13:14;;;;;;;39.53;22.20;;;;;7.00;100221.00;;;;10398760;28;20212;-79
2021/12/23 20:18:17;;;;;;;44.83;24.53;;;;;7.10;100226.00;;;;10399145;28;20199;-79
2021/12/23 20:23:18;;;;;;;52.57;24.93;;;;;7.10;100216.00;;;;10423126;28;20263;-79
2021/12/23 20:28:20;;;;;;;43.80;22.90;;;;;7.20;100223.00;;;;10440032;28;20205;-79
2021/12/23 20:33:22;;;;;;;42.30;23.83;;;;;7.20;100225.00;;;;10439718;28;20225;-79
2021/12/23 20:38:24;;;;;;;41.73;23.27;;;;;7.20;100234.00;;;;10455482;28;20194;-79
2021/12/23 20:43:26;;;;;;;36.17;22.73;;;;;7.20;100227.00;;;;10414420;28;20218;-79
2021/12/23 20:48:28;;;;;;;46.97;23.87;;;;;7.20;100231.00;;;;10414379;28;20253;-79
2021/12/23 20:53:36;;;;;;;49.70;24.77;;;;;7.20;100229.00;;;;10414151;28;20191;-79
2021/12/23 20:58:38;;;;;;;47.97;24.43;;;;;7.30;100222.00;;;;10397985;28;20190;-79
2021/12/23 21:03:41;;;;;;;40.47;23.83;;;;;7.30;100226.00;;;;10398230;28;20228;-79
2021/12/23 21:08:56;;;;;;;46.77;24.43;;;;;7.30;100219.00;;;;10430417;28;20202;-79
2021/12/23 21:14:32;;;;;;;49.67;25.60;;;;;7.20;100221.00;;;;10392545;28;20195;-79
2021/12/23 21:20:10;;;;;;;41.13;24.37;;;;;7.30;100224.00;;;;10384325;28;20187;-79
2021/12/23 21:25:45;;;;;;;69.70;28.00;;;;;7.30;100211.00;;;;10334557;28;20216;-79
2021/12/23 21:31:23;;;;;;;58.20;26.63;;;;;7.40;100207.00;;;;10357401;28;20195;-80
2021/12/23 21:37:00;;;;;;;45.63;26.00;;;;;7.40;100212.00;;;;10388084;28;20217;-79
2021/12/23 21:42:36;;;;;;;45.53;26.30;;;;;7.50;100207.00;;;;10425371;28;20948;-79
2021/12/23 21:48:12;;;;;;;44.60;25.60;;;;;7.60;100217.00;;;;10367368;28;20205;-79
2021/12/23 21:53:51;;;;;;;47.23;26.33;;;;;7.60;100216.00;;;;10341692;28;20257;-79
2021/12/23 21:59:26;;;;;;;39.40;23.77;;;;;7.50;100204.00;;;;10359453;28;20198;-78
2021/12/23 22:05:02;;;;;;;49.10;27.03;;;;;7.50;100210.00;;;;10356484;28;20294;-79
2021/12/23 22:10:39;;;;;;;45.17;25.33;;;;;7.50;100215.00;;;;10377859;28;20201;-79
2021/12/23 22:16:20;;;;;;;44.17;24.13;;;;;7.50;100208.00;;;;10343260;28;20208;-79
2021/12/23 22:21:56;;;;;;;46.87;26.83;;;;;7.40;100204.00;;;;10352293;28;20273;-79
2021/12/23 22:27:32;;;;;;;41.97;26.30;;;;;7.50;100213.00;;;;10341536;28;20198;-79
2021/12/23 22:33:08;;;;;;;43.60;25.10;;;;;7.50;100201.00;;;;10377590;28;20266;-79
2021/12/23 22:38:44;;;;;;;43.03;26.90;;;;;7.50;100189.00;;;;10340139;28;20195;-80
2021/12/23 22:44:20;;;;;;;39.73;26.07;;;;;7.60;100193.00;;;;10325174;28;20711;-80
2021/12/23 22:49:56;;;;;;;45.47;27.00;;;;;7.60;100193.00;;;;10339229;28;20207;-80
2021/12/23 22:55:32;;;;;;;47.50;26.50;;;;;7.60;100194.00;;;;10299409;28;20206;-80
2021/12/23 23:01:08;;;;;;;49.53;28.10;;;;;7.60;100188.00;;;;10320213;28;20688;-79
2021/12/23 23:06:44;;;;;;;39.13;26.03;;;;;7.60;100202.00;;;;10348313;28;20184;-79
2021/12/23 23:12:29;;;;;;;44.17;27.90;;;;;7.70;100194.00;;;;10322107;28;20202;-79
2021/12/23 23:18:04;;;;;;;42.20;25.67;;;;;7.70;100191.00;;;;10351175;28;20196;-79
2021/12/23 23:35:28;;;;;;;56.03;30.47;;;;;7.80;100181.00;;;;10366471;28;20236;-79
2021/12/23 23:41:05;;;;;;;47.57;28.40;;;;;7.80;100180.00;;;;10395374;28;20301;-79
2021/12/23 23:46:41;;;;;;;45.23;25.83;;;;;7.80;100175.00;;;;10397270;28;20191;-79
2021/12/23 23:52:19;;;;;;;39.73;25.00;;;;;7.90;100169.00;;;;10381015;28;20197;-79
2021/12/23 23:57:57;;;;;;;34.20;22.07;;;;;7.90;100164.00;;;;10390373;28;20206;-79
